Time;durP1;ratioP1;P1;durP2;ratioP2;P2;SDS_P1;SDS_P2;PMS_P1;PMS_P2;Temp;Humidity;BMP_temperature;BMP_pressure;BME280_temperature;BME280_humidity;BME280_pressure;Samples;Min_cycle;Max_cycle;Signal;HPM_P1;HPM_P2
2023/08/04 00:00:47;;;;;;;18.02;6.32;;;17.60;99.90;;;;;;5094126;28;20475;-71
2023/08/04 00:03:14;;;;;;;18.05;6.68;;;17.60;99.90;;;;;;5108994;28;20039;-70
2023/08/04 00:05:39;;;;;;;17.23;7.47;;;17.50;99.90;;;;;;5113290;28;20371;-70
2023/08/04 00:08:05;;;;;;;16.58;6.53;;;17.50;99.90;;;;;;5113139;28;20094;-70
2023/08/04 00:10:30;;;;;;;14.60;6.93;;;17.50;99.90;;;;;;5112414;28;20119;-70
2023/08/04 00:12:56;;;;;;;13.68;6.53;;;17.50;99.90;;;;;;5112705;28;20034;-70
2023/08/04 00:15:22;;;;;;;17.80;6.53;;;17.50;99.90;;;;;;5112433;28;20019;-70
2023/08/04 00:17:48;;;;;;;15.18;6.47;;;17.40;99.90;;;;;;5104710;28;20484;-70
2023/08/04 00:20:13;;;;;;;15.18;7.47;;;17.40;99.90;;;;;;5092553;28;20043;-71
2023/08/04 00:22:39;;;;;;;23.98;7.35;;;17.40;99.90;;;;;;5092907;28;20098;-70
2023/08/04 00:25:06;;;;;;;17.20;7.35;;;17.40;99.90;;;;;;5092687;28;20578;-70
2023/08/04 00:27:31;;;;;;;14.40;8.32;;;17.40;99.90;;;;;;5095081;28;20169;-70
2023/08/04 00:29:57;;;;;;;22.08;7.70;;;17.40;99.90;;;;;;5113011;28;20098;-70
2023/08/04 00:32:23;;;;;;;17.65;7.90;;;17.40;99.90;;;;;;5113002;28;20496;-70
2023/08/04 00:34:48;;;;;;;16.23;7.15;;;17.40;99.90;;;;;;5113129;28;20467;-70
2023/08/04 00:37:14;;;;;;;14.60;7.65;;;17.30;99.90;;;;;;5111554;28;20024;-70
2023/08/04 00:39:40;;;;;;;16.30;8.45;;;17.30;99.90;;;;;;5113094;28;20027;-70
2023/08/04 00:42:05;;;;;;;19.75;8.20;;;17.30;99.90;;;;;;5111661;28;20401;-71
2023/08/04 00:44:31;;;;;;;15.60;8.32;;;17.30;99.90;;;;;;5112622;28;20051;-69
2023/08/04 00:46:58;;;;;;;18.30;7.78;;;17.30;99.90;;;;;;5110938;28;20376;-70
2023/08/04 00:49:23;;;;;;;15.70;7.93;;;17.30;99.90;;;;;;5092498;28;20059;-70
2023/08/04 00:51:50;;;;;;;18.95;8.73;;;17.30;99.90;;;;;;5092657;28;20059;-69
2023/08/04 00:54:15;;;;;;;18.42;8.88;;;17.20;99.90;;;;;;5092289;28;20036;-69
2023/08/04 00:56:41;;;;;;;18.98;8.43;;;17.20;99.90;;;;;;5091057;28;20539;-70
2023/08/04 00:59:07;;;;;;;21.52;7.60;;;17.20;99.90;;;;;;5092304;28;20138;-69
2023/08/04 01:01:33;;;;;;;18.02;7.80;;;17.30;99.90;;;;;;5092132;28;20055;-69
2023/08/04 01:03:59;;;;;;;15.82;7.75;;;17.20;99.90;;;;;;5092388;28;20116;-70
2023/08/04 01:06:40;;;;;;;21.88;8.45;;;17.20;99.90;;;;;;5092570;28;20020;-70
2023/08/04 01:09:30;;;;;;;17.58;8.65;;;17.20;99.90;;;;;;5091927;28;20598;-70
2023/08/04 01:12:13;;;;;;;17.50;8.50;;;17.20;99.90;;;;;;5095109;28;20035;-70
2023/08/04 01:14:42;;;;;;;22.58;7.97;;;17.20;99.90;;;;;;5112637;27;20047;-69
2023/08/04 01:17:31;;;;;;;18.27;7.93;;;17.20;99.90;;;;;;5107145;28;20546;-70
2023/08/04 01:19:58;;;;;;;19.90;7.63;;;17.20;99.90;;;;;;5086563;28;20039;-69
2023/08/04 01:22:25;;;;;;;22.05;8.48;;;17.20;99.90;;;;;;5092036;28;20156;-70
2023/08/04 01:24:52;;;;;;;18.27;8.40;;;17.20;99.90;;;;;;5090810;28;20028;-70
2023/08/04 01:27:28;;;;;;;17.00;7.13;;;17.20;99.90;;;;;;5092395;28;20499;-70
2023/08/04 01:29:57;;;;;;;23.27;8.50;;;17.20;99.90;;;;;;5091795;28;20016;-69
2023/08/04 01:32:22;;;;;;;17.25;7.32;;;17.20;99.90;;;;;;5092228;28;20097;-69
2023/08/04 01:34:49;;;;;;;18.45;7.38;;;17.20;99.90;;;;;;5091873;28;20059;-70
2023/08/04 01:37:15;;;;;;;14.43;7.22;;;17.20;99.90;;;;;;5112189;28;20031;-70
2023/08/04 01:39:42;;;;;;;20.20;9.40;;;17.20;99.90;;;;;;5112270;28;20035;-70
2023/08/04 01:42:07;;;;;;;25.30;8.48;;;17.20;99.90;;;;;;5112200;28;20039;-71
2023/08/04 01:44:33;;;;;;;14.57;8.07;;;17.20;99.90;;;;;;5112259;28;20027;-70
2023/08/04 01:47:00;;;;;;;17.90;7.75;;;17.20;99.90;;;;;;5112527;28;20020;-70
2023/08/04 01:49:26;;;;;;;20.95;8.85;;;17.30;99.90;;;;;;5112348;28;20027;-70
2023/08/04 01:51:51;;;;;;;17.30;8.95;;;17.20;99.90;;;;;;5112332;28;20483;-69
2023/08/04 01:54:17;;;;;;;20.05;8.40;;;17.20;99.90;;;;;;5112161;28;20023;-71
2023/08/04 01:56:43;;;;;;;22.45;7.88;;;17.20;99.90;;;;;;5112287;28;20077;-70
2023/08/04 01:59:08;;;;;;;15.85;8.63;;;17.20;99.90;;;;;;5105332;28;20024;-69
2023/08/04 02:01:34;;;;;;;18.98;9.02;;;17.20;99.90;;;;;;5098223;28;20028;-69
2023/08/04 02:04:00;;;;;;;13.70;7.80;;;17.20;99.90;;;;;;5095982;28;20112;-69
2023/08/04 02:06:25;;;;;;;14.10;7.43;;;17.20;99.90;;;;;;5098641;28;20107;-70
2023/08/04 02:08:51;;;;;;;17.77;7.70;;;17.20;99.90;;;;;;5091310;28;20451;-70
2023/08/04 02:11:17;;;;;;;18.23;8.23;;;17.20;99.90;;;;;;5090259;28;20528;-70
2023/08/04 02:13:42;;;;;;;18.80;9.35;;;17.20;99.90;;;;;;5091741;28;20020;-70
2023/08/04 02:16:08;;;;;;;15.73;8.30;;;17.30;99.90;;;;;;5091293;28;20093;-70
2023/08/04 02:18:34;;;;;;;19.15;8.75;;;17.30;99.90;;;;;;5090553;28;20016;-70
2023/08/04 02:20:59;;;;;;;18.58;8.30;;;17.30;99.90;;;;;;5091694;28;20525;-70
2023/08/04 02:23:25;;;;;;;14.38;8.63;;;17.30;99.90;;;;;;5091794;28;20107;-70
2023/08/04 02:25:51;;;;;;;22.27;8.10;;;17.20;99.90;;;;;;5091862;28;20604;-70
2023/08/04 02:28:16;;;;;;;21.52;8.90;;;17.20;99.90;;;;;;5093179;28;20032;-70
2023/08/04 02:30:42;;;;;;;16.85;8.90;;;17.20;99.90;;;;;;5094814;28;20020;-70
2023/08/04 02:33:08;;;;;;;18.23;8.52;;;17.20;99.90;;;;;;5095492;28;20031;-70
2023/08/04 02:35:34;;;;;;;23.73;8.77;;;17.20;99.90;;;;;;5101145;28;20023;-70
2023/08/04 02:37:59;;;;;;;13.75;7.45;;;17.20;99.90;;;;;;5116034;28;20019;-69
2023/08/04 02:40:25;;;;;;;17.40;7.90;;;17.20;99.90;;;;;;5115813;28;20452;-70
2023/08/04 02:42:51;;;;;;;21.17;8.68;;;17.20;99.90;;;;;;5115207;28;20438;-70
2023/08/04 02:45:16;;;;;;;20.42;8.00;;;17.30;99.90;;;;;;5115617;28;20419;-70
2023/08/04 02:47:42;;;;;;;17.85;8.32;;;17.20;99.90;;;;;;5115762;28;20027;-70
2023/08/04 02:50:08;;;;;;;17.73;8.05;;;17.20;99.90;;;;;;5114804;28;20024;-73
2023/08/04 02:52:34;;;;;;;20.73;8.60;;;17.20;99.90;;;;;;5115423;28;20036;-70
2023/08/04 02:55:00;;;;;;;22.63;9.50;;;17.20;99.90;;;;;;5114321;28;20403;-70
2023/08/04 02:57:31;;;;;;;18.27;8.32;;;17.20;99.90;;;;;;5114624;28;20115;-69
2023/08/04 02:59:58;;;;;;;18.63;8.27;;;17.20;99.90;;;;;;5114900;28;20065;-69
2023/08/04 03:02:25;;;;;;;17.63;8.63;;;17.20;99.90;;;;;;5115248;28;20056;-70
2023/08/04 03:04:51;;;;;;;21.58;8.23;;;17.30;99.90;;;;;;5115572;28;20411;-70
2023/08/04 03:07:16;;;;;;;21.05;8.93;;;17.30;99.90;;;;;;5115112;28;20034;-69
2023/08/04 03:09:42;;;;;;;24.30;8.32;;;17.30;99.90;;;;;;5115120;28;20476;-70
2023/08/04 03:12:08;;;;;;;21.13;8.00;;;17.30;99.90;;;;;;5114698;28;20088;-70
2023/08/04 03:14:33;;;;;;;17.67;7.75;;;17.30;99.90;;;;;;5115171;28;20417;-70
2023/08/04 03:16:59;;;;;;;19.48;8.48;;;17.30;99.90;;;;;;5114702;28;20026;-70
2023/08/04 03:19:25;;;;;;;18.92;8.65;;;17.30;99.90;;;;;;5114569;28;20032;-69
2023/08/04 03:21:50;;;;;;;13.40;8.15;;;17.30;99.90;;;;;;5114676;28;20388;-71
2023/08/04 03:24:16;;;;;;;19.27;8.23;;;17.30;99.90;;;;;;5114937;28;20066;-70
2023/08/04 03:26:42;;;;;;;14.43;8.27;;;17.30;99.90;;;;;;5114461;28;20095;-70
2023/08/04 03:29:08;;;;;;;16.83;8.90;;;17.30;99.90;;;;;;5114789;28;20024;-70
2023/08/04 03:31:33;;;;;;;17.85;9.02;;;17.30;99.90;;;;;;5114805;28;20024;-69
2023/08/04 03:33:59;;;;;;;18.55;8.57;;;17.40;99.90;;;;;;5114392;28;20027;-70
2023/08/04 03:36:25;;;;;;;17.92;9.02;;;17.30;99.90;;;;;;5114079;28;20057;-70
2023/08/04 03:38:50;;;;;;;19.63;8.82;;;17.30;99.90;;;;;;5113629;28;20037;-70
2023/08/04 03:41:16;;;;;;;18.13;8.90;;;17.30;99.90;;;;;;5114322;28;20028;-70
2023/08/04 03:43:42;;;;;;;20.05;8.88;;;17.30;99.90;;;;;;5114307;28;20035;-69
2023/08/04 03:46:07;;;;;;;21.80;9.65;;;17.30;99.90;;;;;;5113825;28;20027;-70
2023/08/04 03:48:33;;;;;;;21.60;9.82;;;17.30;99.90;;;;;;5114356;28;20034;-69
2023/08/04 03:50:59;;;;;;;24.50;9.80;;;17.30;99.90;;;;;;5114054;28;20020;-70
2023/08/04 03:53:24;;;;;;;20.60;9.63;;;17.30;99.90;;;;;;5114153;28;20031;-69
2023/08/04 03:55:50;;;;;;;22.60;10.13;;;17.30;99.90;;;;;;5113873;28;20024;-70
2023/08/04 03:58:16;;;;;;;25.15;10.85;;;17.30;99.90;;;;;;5113596;28;20027;-70
2023/08/04 04:00:42;;;;;;;23.15;10.15;;;17.30;99.90;;;;;;5112797;28;20028;-70
2023/08/04 04:03:07;;;;;;;24.17;10.45;;;17.30;99.90;;;;;;5113702;28;20051;-70
2023/08/04 04:05:33;;;;;;;22.52;10.02;;;17.30;99.90;;;;;;5112715;28;20523;-70
2023/08/04 04:07:58;;;;;;;24.38;10.95;;;17.30;99.90;;;;;;5113538;28;20024;-69
2023/08/04 04:10:24;;;;;;;25.27;10.52;;;17.30;99.90;;;;;;5107053;28;20030;-70
2023/08/04 04:12:50;;;;;;;19.17;10.88;;;17.30;99.90;;;;;;5098097;28;20038;-69
2023/08/04 04:15:16;;;;;;;24.10;10.90;;;17.30;99.90;;;;;;5093552;28;20370;-70
2023/08/04 04:17:41;;;;;;;23.20;10.85;;;17.30;99.90;;;;;;5093255;28;20503;-70
2023/08/04 04:20:07;;;;;;;23.65;11.07;;;17.30;99.90;;;;;;5093545;28;20101;-69
2023/08/04 04:22:34;;;;;;;21.88;10.88;;;17.30;99.90;;;;;;5104136;28;20506;-70
2023/08/04 04:25:00;;;;;;;28.13;11.38;;;17.30;99.90;;;;;;5101008;28;20024;-69
2023/08/04 04:27:26;;;;;;;31.05;12.98;;;17.30;99.90;;;;;;5098263;28;20020;-69
2023/08/04 04:29:52;;;;;;;29.13;12.13;;;17.20;99.90;;;;;;5101652;28;20028;-69
2023/08/04 04:32:17;;;;;;;21.48;9.93;;;17.20;99.90;;;;;;5101788;28;20028;-70
2023/08/04 04:34:43;;;;;;;24.05;10.25;;;17.30;99.90;;;;;;5093119;28;20024;-71
2023/08/04 04:37:09;;;;;;;23.25;10.55;;;17.30;99.90;;;;;;5112933;28;20440;-69
2023/08/04 04:39:34;;;;;;;24.10;11.88;;;17.30;99.90;;;;;;5113066;27;20036;-71
2023/08/04 04:42:01;;;;;;;23.25;12.98;;;17.30;99.90;;;;;;5109017;28;20031;-71
2023/08/04 04:44:28;;;;;;;30.10;13.25;;;17.30;99.90;;;;;;5101744;28;20495;-71
2023/08/04 04:46:54;;;;;;;29.20;12.35;;;17.30;99.90;;;;;;5092962;28;20020;-70
2023/08/04 04:49:19;;;;;;;32.90;12.68;;;17.30;99.90;;;;;;5092823;28;20057;-71
2023/08/04 04:51:45;;;;;;;21.10;12.23;;;17.30;99.90;;;;;;5091597;28;20484;-71
2023/08/04 04:54:11;;;;;;;28.33;13.02;;;17.30;99.90;;;;;;5092559;28;20024;-71
2023/08/04 04:56:38;;;;;;;27.45;12.30;;;17.30;99.90;;;;;;5092723;28;20473;-71
2023/08/04 04:59:03;;;;;;;25.02;12.10;;;17.30;99.90;;;;;;5092406;28;20139;-72
2023/08/04 05:01:29;;;;;;;23.40;12.27;;;17.30;99.90;;;;;;5092112;28;20099;-71
2023/08/04 05:03:55;;;;;;;21.17;11.90;;;17.30;99.90;;;;;;5092643;28;20030;-71
2023/08/04 05:06:20;;;;;;;21.15;12.25;;;17.30;99.90;;;;;;5092891;28;20024;-71
2023/08/04 05:08:46;;;;;;;24.20;12.35;;;17.30;99.90;;;;;;5092093;28;20425;-71
2023/08/04 05:11:12;;;;;;;19.63;12.73;;;17.40;99.90;;;;;;5092636;28;20032;-71
2023/08/04 05:13:37;;;;;;;23.88;12.13;;;17.40;99.90;;;;;;5092029;28;20038;-69
2023/08/04 05:16:04;;;;;;;24.90;13.27;;;17.40;99.90;;;;;;5091858;28;20023;-71
2023/08/04 05:18:30;;;;;;;24.83;12.43;;;17.50;99.90;;;;;;5092346;28;20024;-72
2023/08/04 05:20:56;;;;;;;25.15;12.60;;;17.50;99.90;;;;;;5092396;28;20032;-73
2023/08/04 05:23:22;;;;;;;25.48;12.60;;;17.40;99.90;;;;;;5092031;28;20109;-72
2023/08/04 05:25:48;;;;;;;28.23;13.63;;;17.50;99.90;;;;;;5094942;28;20059;-72
2023/08/04 05:28:30;;;;;;;26.20;13.27;;;17.50;99.90;;;;;;5112645;28;20051;-73
2023/08/04 05:31:04;;;;;;;27.07;12.57;;;17.50;99.90;;;;;;5112300;28;20031;-71
2023/08/04 05:33:32;;;;;;;18.58;10.65;;;17.50;99.90;;;;;;5112393;28;20028;-71
2023/08/04 05:35:58;;;;;;;21.27;12.63;;;17.50;99.90;;;;;;5111766;28;20082;-71
2023/08/04 05:38:24;;;;;;;22.10;11.50;;;17.50;99.90;;;;;;5112250;28;20045;-74
2023/08/04 05:40:50;;;;;;;22.23;13.27;;;17.60;99.90;;;;;;5112258;28;20088;-73
2023/08/04 05:43:16;;;;;;;22.83;12.30;;;17.60;99.90;;;;;;5112204;28;20036;-71
2023/08/04 05:45:44;;;;;;;20.90;12.43;;;17.60;99.90;;;;;;5112204;28;20032;-71
2023/08/04 05:48:10;;;;;;;24.70;11.63;;;17.60;99.90;;;;;;5111031;28;20027;-71
2023/08/04 05:50:36;;;;;;;24.60;12.20;;;17.60;99.90;;;;;;5111902;28;20050;-72
2023/08/04 05:53:03;;;;;;;23.23;11.70;;;17.60;99.90;;;;;;5111126;28;20015;-72
2023/08/04 05:55:29;;;;;;;24.85;11.38;;;17.70;99.90;;;;;;5112378;28;20038;-70
2023/08/04 05:57:56;;;;;;;17.98;12.05;;;17.70;99.90;;;;;;5111976;28;20475;-72
2023/08/04 06:00:22;;;;;;;22.50;11.05;;;17.70;99.90;;;;;;5112077;28;20311;-71
2023/08/04 06:02:48;;;;;;;22.00;11.85;;;17.70;99.90;;;;;;5114015;28;20059;-70
2023/08/04 06:05:14;;;;;;;24.65;11.75;;;17.70;99.90;;;;;;5116036;28;20054;-72
2023/08/04 06:07:40;;;;;;;25.80;12.57;;;17.70;99.90;;;;;;5115982;28;20081;-71
2023/08/04 06:10:07;;;;;;;25.00;11.23;;;17.70;99.90;;;;;;5115812;28;20015;-70
2023/08/04 06:12:33;;;;;;;29.88;13.05;;;17.80;99.90;;;;;;5112596;28;20142;-73
2023/08/04 06:15:00;;;;;;;22.15;11.38;;;17.80;99.90;;;;;;5114612;27;20016;-74
2023/08/04 06:17:26;;;;;;;23.55;12.20;;;17.90;99.90;;;;;;5111911;28;20053;-71
2023/08/04 06:19:52;;;;;;;20.58;11.85;;;17.90;99.90;;;;;;5115293;28;20023;-72
2023/08/04 06:22:22;;;;;;;23.67;10.27;;;17.90;99.90;;;;;;5111838;28;20055;-73
2023/08/04 06:24:47;;;;;;;18.58;10.93;;;17.90;99.90;;;;;;5113649;28;20446;-71
2023/08/04 06:27:18;;;;;;;23.13;11.25;;;18.00;99.90;;;;;;5114047;28;20114;-72
2023/08/04 06:29:44;;;;;;;24.02;10.52;;;17.90;99.90;;;;;;5101363;27;20030;-70
2023/08/04 06:32:10;;;;;;;24.67;12.48;;;17.90;99.90;;;;;;5104639;28;20024;-69
2023/08/04 06:34:36;;;;;;;19.88;10.88;;;17.90;99.90;;;;;;5103704;28;20487;-69
2023/08/04 06:37:02;;;;;;;21.98;12.27;;;18.00;99.90;;;;;;5106042;28;20039;-71
2023/08/04 06:39:28;;;;;;;21.23;11.30;;;18.00;99.90;;;;;;5090168;28;20031;-71
2023/08/04 06:41:53;;;;;;;26.70;11.00;;;18.00;99.90;;;;;;5104496;28;20475;-70
2023/08/04 06:44:21;;;;;;;20.60;11.75;;;18.20;99.90;;;;;;5110685;28;20020;-72
2023/08/04 06:46:48;;;;;;;19.88;9.68;;;18.20;99.90;;;;;;5110042;28;20459;-70
2023/08/04 06:49:13;;;;;;;16.67;9.75;;;18.20;99.90;;;;;;5114505;27;20483;-71
2023/08/04 06:51:39;;;;;;;14.80;9.80;;;18.20;99.90;;;;;;5114955;28;20030;-73
2023/08/04 06:54:05;;;;;;;18.45;9.93;;;18.20;99.90;;;;;;5114898;28;20102;-72
2023/08/04 06:56:30;;;;;;;15.90;9.45;;;18.30;99.90;;;;;;5115021;28;20027;-73
2023/08/04 06:58:56;;;;;;;21.35;9.18;;;18.30;99.90;;;;;;5114873;28;20024;-71
2023/08/04 07:01:22;;;;;;;145.50;26.33;;;18.30;99.90;;;;;;5115109;28;20028;-75
2023/08/04 07:03:48;;;;;;;38.08;11.57;;;18.40;99.90;;;;;;5112932;28;20483;-74
2023/08/04 07:06:14;;;;;;;20.17;8.55;;;18.40;99.90;;;;;;5115008;28;20023;-72
2023/08/04 07:08:41;;;;;;;19.20;9.85;;;18.40;99.90;;;;;;5114989;28;20395;-72
2023/08/04 07:11:17;;;;;;;13.57;7.68;;;18.50;99.90;;;;;;5113606;28;20468;-72
2023/08/04 07:13:46;;;;;;;17.42;7.47;;;18.50;99.90;;;;;;5113752;28;20070;-72
2023/08/04 07:16:12;;;;;;;9.25;6.35;;;18.40;99.90;;;;;;5113106;28;20508;-72
2023/08/04 07:18:39;;;;;;;10.95;6.63;;;18.50;99.90;;;;;;5114744;28;20037;-71
2023/08/04 07:21:09;;;;;;;8.95;5.50;;;18.60;99.90;;;;;;5114133;28;20031;-71
2023/08/04 07:23:35;;;;;;;7.43;5.20;;;18.70;99.90;;;;;;5114366;27;20047;-72
2023/08/04 07:26:03;;;;;;;10.10;5.88;;;18.80;99.90;;;;;;5113870;28;20019;-71
2023/08/04 07:28:29;;;;;;;11.60;5.32;;;18.90;99.90;;;;;;5114085;28;20019;-70
2023/08/04 07:30:54;;;;;;;10.90;5.60;;;18.90;99.90;;;;;;5113908;28;20118;-71
2023/08/04 07:33:22;;;;;;;8.70;5.10;;;18.90;99.90;;;;;;5113846;28;20365;-70
2023/08/04 07:35:58;;;;;;;11.88;5.85;;;18.90;99.90;;;;;;5113957;28;20020;-73
2023/08/04 07:38:24;;;;;;;11.30;4.97;;;18.80;99.90;;;;;;5114393;27;20027;-71
2023/08/04 07:40:50;;;;;;;9.73;5.20;;;18.90;99.90;;;;;;5114020;28;20031;-72
2023/08/04 07:43:16;;;;;;;10.38;4.82;;;19.00;99.90;;;;;;5114158;28;20032;-72
2023/08/04 07:45:42;;;;;;;10.10;4.47;;;19.10;99.90;;;;;;5114393;28;20114;-72
2023/08/04 07:48:08;;;;;;;6.15;4.85;;;19.20;99.90;;;;;;5112415;28;20524;-71
2023/08/04 07:50:42;;;;;;;15.55;5.43;;;19.20;99.90;;;;;;5114399;28;20027;-73
2023/08/04 07:53:08;;;;;;;7.70;4.75;;;19.30;99.90;;;;;;5100119;28;20074;-74
2023/08/04 07:55:35;;;;;;;8.63;5.18;;;19.30;99.90;;;;;;5102947;28;20047;-70
2023/08/04 07:58:05;;;;;;;7.93;4.53;;;19.40;99.90;;;;;;5091132;28;20413;-69
2023/08/04 08:00:31;;;;;;;8.98;5.45;;;19.40;99.90;;;;;;5091674;28;20028;-74
2023/08/04 08:02:56;;;;;;;12.60;5.47;;;19.30;99.90;;;;;;5093259;28;20040;-72
2023/08/04 08:05:22;;;;;;;9.70;5.20;;;19.30;99.90;;;;;;5093319;28;20020;-72
2023/08/04 08:07:48;;;;;;;8.60;5.45;;;19.40;99.90;;;;;;5093707;28;20133;-70
2023/08/04 08:10:14;;;;;;;11.23;5.57;;;19.30;99.90;;;;;;5093160;28;20476;-71
2023/08/04 08:12:39;;;;;;;9.75;5.38;;;19.30;99.90;;;;;;5092940;28;20024;-71
2023/08/04 08:15:06;;;;;;;6.88;5.32;;;19.30;99.90;;;;;;5093208;28;20047;-71
2023/08/04 08:17:32;;;;;;;8.02;5.43;;;19.30;99.90;;;;;;5093021;28;20057;-71
2023/08/04 08:19:57;;;;;;;8.15;5.47;;;19.60;99.90;;;;;;5093109;28;20073;-70
2023/08/04 08:22:23;;;;;;;7.50;5.32;;;19.70;99.90;;;;;;5093034;28;20036;-71
2023/08/04 08:24:53;;;;;;;11.88;5.80;;;19.80;99.90;;;;;;5092939;28;20107;-71
2023/08/04 08:27:19;;;;;;;8.45;5.07;;;19.90;99.90;;;;;;5091468;28;20099;-71
2023/08/04 08:29:45;;;;;;;10.82;5.10;;;20.00;99.90;;;;;;5092341;28;20112;-72
2023/08/04 08:32:11;;;;;;;5.63;4.10;;;19.90;99.90;;;;;;5092910;28;20056;-71
2023/08/04 08:34:37;;;;;;;9.10;4.18;;;19.90;99.90;;;;;;5092765;28;20024;-71
2023/08/04 08:37:03;;;;;;;10.15;4.13;;;19.80;99.90;;;;;;5111940;28;20023;-71
2023/08/04 08:39:31;;;;;;;10.15;3.50;;;19.80;99.90;;;;;;5112932;28;20357;-71
2023/08/04 08:41:58;;;;;;;6.10;3.17;;;19.70;99.90;;;;;;5111971;28;20035;-72
2023/08/04 08:44:23;;;;;;;8.10;3.50;;;19.80;99.90;;;;;;5112226;27;20027;-71
2023/08/04 08:46:50;;;;;;;6.90;3.55;;;19.80;99.90;;;;;;5113113;28;20425;-71
2023/08/04 08:49:16;;;;;;;8.52;3.72;;;19.90;99.90;;;;;;5112599;28;20027;-71
2023/08/04 08:51:48;;;;;;;7.57;4.53;;;20.00;99.90;;;;;;5112100;28;20028;-70
2023/08/04 08:54:14;;;;;;;8.00;4.30;;;20.10;99.90;;;;;;5113118;28;20597;-72
2023/08/04 08:56:40;;;;;;;5.95;3.60;;;20.10;99.90;;;;;;5112816;28;20141;-71
2023/08/04 08:59:07;;;;;;;5.28;3.72;;;20.10;99.90;;;;;;5112067;28;20135;-72
2023/08/04 09:01:34;;;;;;;7.80;3.50;;;20.20;99.90;;;;;;5113049;28;20070;-72
2023/08/04 09:04:00;;;;;;;5.20;3.33;;;20.30;99.90;;;;;;5112909;28;20091;-71
2023/08/04 09:06:27;;;;;;;5.15;3.60;;;20.40;99.90;;;;;;5112783;28;20051;-71
2023/08/04 09:08:54;;;;;;;5.65;3.42;;;20.40;99.90;;;;;;5112099;28;20026;-71
2023/08/04 09:11:20;;;;;;;4.65;3.42;;;20.50;99.90;;;;;;5112821;28;20079;-72
2023/08/04 09:13:46;;;;;;;6.28;3.65;;;20.60;99.90;;;;;;5112060;28;20027;-70
2023/08/04 09:16:15;;;;;;;5.60;3.15;;;20.70;99.90;;;;;;5112759;28;20472;-71
2023/08/04 09:18:42;;;;;;;5.45;2.83;;;20.70;99.90;;;;;;5112460;28;20069;-71
2023/08/04 09:21:07;;;;;;;7.28;3.20;;;20.70;99.90;;;;;;5112542;28;20020;-70
2023/08/04 09:23:42;;;;;;;4.50;3.33;;;20.80;99.90;;;;;;5111342;28;20471;-72
2023/08/04 09:26:08;;;;;;;5.28;3.30;;;20.90;99.90;;;;;;5111874;28;20024;-70
2023/08/04 09:28:34;;;;;;;4.07;3.10;;;20.90;99.90;;;;;;5112055;28;20060;-70
2023/08/04 09:31:10;;;;;;;3.83;2.45;;;21.00;99.90;;;;;;5112610;28;20024;-70
2023/08/04 09:33:41;;;;;;;4.65;2.65;;;20.90;99.90;;;;;;5112493;28;20043;-71
2023/08/04 09:36:18;;;;;;;5.13;2.85;;;20.90;99.90;;;;;;5112156;28;20037;-70
2023/08/04 09:38:44;;;;;;;7.13;3.22;;;20.90;99.90;;;;;;5111829;28;20460;-71
2023/08/04 09:41:12;;;;;;;4.35;2.78;;;21.10;99.90;;;;;;5112345;28;20039;-70
2023/08/04 09:43:45;;;;;;;4.72;3.13;;;21.30;99.90;;;;;;5111057;28;20054;-71
2023/08/04 09:46:11;;;;;;;4.20;3.25;;;21.60;99.90;;;;;;5112384;28;20031;-71
2023/08/04 09:48:36;;;;;;;218.55;26.77;;;21.80;99.90;;;;;;5112238;28;20032;-71
2023/08/04 09:51:19;;;;;;;81.00;11.60;;;21.70;99.90;;;;;;5111997;28;20465;-71
2023/08/04 09:53:54;;;;;;;252.90;29.83;;;21.70;99.90;;;;;;5112430;28;20031;-71
2023/08/04 09:56:21;;;;;;;19.90;4.80;;;21.60;99.90;;;;;;5110432;28;20460;-70
2023/08/04 09:58:48;;;;;;;5.75;3.50;;;21.40;99.90;;;;;;5111530;28;20032;-71
2023/08/04 10:01:15;;;;;;;7.38;4.60;;;21.30;99.90;;;;;;5111895;28;20376;-71
2023/08/04 10:03:43;;;;;;;6.88;4.32;;;21.30;99.90;;;;;;5110900;28;20123;-71
2023/08/04 10:06:09;;;;;;;5.07;4.32;;;21.20;99.90;;;;;;5111593;28;20480;-71
2023/08/04 10:08:39;;;;;;;8.77;4.38;;;21.10;99.90;;;;;;5111894;28;20024;-72
2023/08/04 10:11:06;;;;;;;77.20;11.73;;;21.00;99.90;;;;;;5111624;28;20038;-72
2023/08/04 10:13:39;;;;;;;4.72;3.35;;;21.00;99.90;;;;;;5111345;28;20024;-70
2023/08/04 10:16:07;;;;;;;6.32;2.92;;;21.00;99.90;;;;;;5111908;28;20084;-70
2023/08/04 10:18:54;;;;;;;5.82;3.20;;;20.90;99.90;;;;;;5110443;28;20055;-70
2023/08/04 10:21:34;;;;;;;4.65;3.45;;;21.00;99.90;;;;;;5111981;28;20023;-71
2023/08/04 10:24:01;;;;;;;4.30;3.10;;;21.10;99.90;;;;;;5112140;28;20131;-71
2023/08/04 10:26:30;;;;;;;4.03;3.38;;;21.30;99.90;;;;;;5111671;28;20019;-70
2023/08/04 10:29:20;;;;;;;7.43;3.60;;;21.40;99.90;;;;;;5111816;28;20024;-71
2023/08/04 10:31:55;;;;;;;4.13;3.05;;;21.50;99.90;;;;;;5112008;28;20091;-71
2023/08/04 10:34:25;;;;;;;4.55;2.80;;;21.70;99.90;;;;;;5111113;27;20488;-71
2023/08/04 10:37:05;;;;;;;4.53;3.25;;;21.90;99.90;;;;;;5111633;28;20388;-70
2023/08/04 10:39:35;;;;;;;7.57;3.13;;;22.10;99.90;;;;;;5111788;28;20089;-72
2023/08/04 10:42:23;;;;;;;5.15;2.95;;;22.10;99.90;;;;;;5111185;27;20032;-71
2023/08/04 10:45:03;;;;;;;4.68;2.90;;;21.90;99.90;;;;;;5111503;28;20069;-70
2023/08/04 10:47:45;;;;;;;5.97;3.78;;;21.80;99.90;;;;;;5111446;28;20016;-71
2023/08/04 10:50:12;;;;;;;4.75;3.15;;;21.70;99.90;;;;;;5115110;27;20023;-70
2023/08/04 10:52:39;;;;;;;5.35;3.08;;;21.70;99.90;;;;;;5115486;28;20023;-71
2023/08/04 10:55:07;;;;;;;5.57;2.90;;;21.90;99.90;;;;;;5114588;28;20031;-71
2023/08/04 10:57:34;;;;;;;5.03;2.58;;;22.00;99.90;;;;;;5115179;28;20020;-71
2023/08/04 11:00:02;;;;;;;5.75;2.13;;;22.10;99.90;;;;;;5114949;28;20065;-71
2023/08/04 11:02:28;;;;;;;5.05;2.13;;;22.10;99.90;;;;;;5114982;28;20028;-71
2023/08/04 11:04:56;;;;;;;5.07;2.40;;;22.00;99.90;;;;;;5115358;27;20103;-70
2023/08/04 11:07:23;;;;;;;3.67;1.90;;;22.00;99.90;;;;;;5113729;28;20016;-72
2023/08/04 11:09:50;;;;;;;5.85;2.30;;;22.10;99.90;;;;;;5114793;28;20357;-70
2023/08/04 11:12:16;;;;;;;7.35;2.00;;;22.20;99.90;;;;;;5114721;28;20110;-71
2023/08/04 11:14:42;;;;;;;6.53;1.98;;;22.30;99.90;;;;;;5115277;28;20153;-71
2023/08/04 11:17:19;;;;;;;5.18;2.08;;;22.20;99.90;;;;;;5115063;28;20103;-71
2023/08/04 11:19:49;;;;;;;4.10;2.17;;;22.00;99.90;;;;;;5114754;28;20055;-71
2023/08/04 11:22:21;;;;;;;7.95;3.70;;;21.90;99.90;;;;;;5114257;28;20024;-72
2023/08/04 11:24:47;;;;;;;4.07;1.90;;;22.00;99.90;;;;;;5114514;28;20031;-72
2023/08/04 11:27:16;;;;;;;4.25;1.90;;;22.10;99.90;;;;;;5114798;28;20024;-71
2023/08/04 11:29:42;;;;;;;13.20;6.47;;;22.30;99.90;;;;;;5114455;28;20075;-71
2023/08/04 11:32:11;;;;;;;3.05;1.63;;;22.50;99.90;;;;;;5113770;27;20024;-73
2023/08/04 11:34:41;;;;;;;4.15;1.70;;;22.70;99.90;;;;;;5111109;28;20027;-71
2023/08/04 11:37:09;;;;;;;7.30;1.73;;;22.70;99.90;;;;;;5112833;27;20035;-74
2023/08/04 11:39:37;;;;;;;2.67;1.30;;;22.70;99.90;;;;;;5113596;28;20080;-71
2023/08/04 11:42:03;;;;;;;1.35;1.10;;;22.60;99.90;;;;;;5114154;28;20050;-74
2023/08/04 11:44:30;;;;;;;6.32;1.92;;;22.40;99.90;;;;;;5114685;27;20030;-71
2023/08/04 11:46:56;;;;;;;6.32;1.30;;;22.40;99.90;;;;;;5112652;28;20030;-70
2023/08/04 11:49:22;;;;;;;2.83;1.48;;;22.60;99.90;;;;;;5113783;28;20175;-70
2023/08/04 11:51:49;;;;;;;3.25;1.42;;;22.90;99.90;;;;;;5113632;28;20030;-74
2023/08/04 11:54:23;;;;;;;2.88;1.13;;;23.10;99.90;;;;;;5113693;28;20085;-71
2023/08/04 11:56:56;;;;;;;2.50;1.58;;;23.40;99.90;;;;;;5114485;28;20051;-70
2023/08/04 11:59:23;;;;;;;3.05;1.60;;;23.60;99.90;;;;;;5113494;27;20088;-72
2023/08/04 12:01:49;;;;;;;2.85;1.52;;;23.60;99.90;;;;;;5111997;28;20023;-72
2023/08/04 12:04:24;;;;;;;4.45;2.05;;;23.70;99.90;;;;;;5113688;28;20031;-71
2023/08/04 12:07:01;;;;;;;3.80;1.95;;;23.80;99.90;;;;;;5113119;28;20027;-71
2023/08/04 12:09:27;;;;;;;6.80;1.88;;;23.80;99.90;;;;;;5111954;28;20031;-72
2023/08/04 12:11:53;;;;;;;4.15;2.20;;;23.80;99.90;;;;;;5114124;28;20027;-71
2023/08/04 12:14:22;;;;;;;7.13;2.20;;;23.50;99.90;;;;;;5113215;28;20054;-73
2023/08/04 12:16:59;;;;;;;9.77;2.60;;;23.20;99.90;;;;;;5113430;28;20026;-73
2023/08/04 12:19:26;;;;;;;8.27;2.35;;;22.90;99.90;;;;;;5113590;28;20076;-73
2023/08/04 12:22:00;;;;;;;4.40;2.20;;;22.70;99.90;;;;;;5112259;28;20035;-74
2023/08/04 12:24:27;;;;;;;4.93;2.15;;;22.60;99.90;;;;;;5113685;28;20031;-73
2023/08/04 12:26:53;;;;;;;4.57;2.33;;;22.50;99.90;;;;;;5112438;28;20055;-72
2023/08/04 12:29:19;;;;;;;310.50;40.75;;;22.30;99.90;;;;;;5113211;28;20019;-72
2023/08/04 12:31:45;;;;;;;1707.93;247.32;;;22.20;99.90;;;;;;5113210;28;20033;-71
2023/08/04 12:34:12;;;;;;;373.25;45.00;;;22.20;99.90;;;;;;5112124;28;20019;-72
2023/08/04 12:36:41;;;;;;;74.68;9.90;;;22.10;99.90;;;;;;5112869;28;20019;-72
2023/08/04 12:39:12;;;;;;;10.05;2.90;;;22.10;99.90;;;;;;5112909;28;20023;-72